KSJX

Beaver Island Airport

Beaver Island, Michigan, USA
METAR KSJX 230536Z AUTO 32010G16KT 10SM SCT019 BKN110 07/03 A2995 RMK AO2 T00700034
Observed Flight Rules
Oct-23 @ 05:36 UTC (6 minutes ago) Visual Flight Rules
Wind Visibility Clouds
320° at 10 knots
 Gusting to 16 knots
10 miles
  • Scattered at 1,900' AGL
  • Broken at 11,000' AGL
Temperatures Readings
Current 7°C / 45°F
Dewpoint 3°C / 37°F
Humidity 76%
Altimeter 29.95" Hg
Pressure 1014 hPa
Elevation 204
METAR KSJX 230536Z AUTO 32010G16KT 10SM SCT019 BKN110 07/03 A2995 RMK AO2 T00700034
Observed Flight Rules
Oct-23 @ 05:36 UTC
(6 minutes ago)
VFR
Wind Visibility
320° at 10 knots
 Gusting to 16 knots
10 miles
Clouds
  • Scattered at 1,900' AGL
  • Broken at 11,000' AGL
Temperature Dewpoint
7°C / 45°F 3°C / 37°F
Humidity Altimeter Pressure
76% 29.95" Hg 1014 hPa